sensor_id;sensor_type;location;lat;lon;timestamp;P1;durP1;ratioP1;P2;durP2;ratioP2
75639;SDS011;64233;51.486;6.332;2023-05-19T00:01:04;3.60;;;2.42;;
75639;SDS011;64233;51.486;6.332;2023-05-19T00:03:32;6.10;;;2.55;;
75639;SDS011;64233;51.486;6.332;2023-05-19T00:05:58;3.28;;;2.67;;
75639;SDS011;64233;51.486;6.332;2023-05-19T00:08:26;4.28;;;2.20;;
75639;SDS011;64233;51.486;6.332;2023-05-19T00:10:55;7.35;;;2.92;;
75639;SDS011;64233;51.486;6.332;2023-05-19T00:13:20;5.15;;;2.58;;
75639;SDS011;64233;51.486;6.332;2023-05-19T00:15:47;4.78;;;2.33;;
75639;SDS011;64233;51.486;6.332;2023-05-19T00:18:13;4.45;;;2.40;;
75639;SDS011;64233;51.486;6.332;2023-05-19T00:20:40;3.97;;;2.38;;
75639;SDS011;64233;51.486;6.332;2023-05-19T00:23:06;4.05;;;2.47;;
75639;SDS011;64233;51.486;6.332;2023-05-19T00:25:31;7.70;;;2.80;;
75639;SDS011;64233;51.486;6.332;2023-05-19T00:27:56;2.58;;;2.22;;
75639;SDS011;64233;51.486;6.332;2023-05-19T00:30:23;4.50;;;2.58;;
75639;SDS011;64233;51.486;6.332;2023-05-19T00:32:48;8.40;;;3.05;;
75639;SDS011;64233;51.486;6.332;2023-05-19T00:35:14;4.18;;;2.33;;
75639;SDS011;64233;51.486;6.332;2023-05-19T00:37:40;9.35;;;3.13;;
75639;SDS011;64233;51.486;6.332;2023-05-19T00:40:05;7.22;;;2.45;;
75639;SDS011;64233;51.486;6.332;2023-05-19T00:42:31;3.55;;;2.22;;
75639;SDS011;64233;51.486;6.332;2023-05-19T00:44:57;9.90;;;2.80;;
75639;SDS011;64233;51.486;6.332;2023-05-19T00:47:22;4.22;;;2.70;;
75639;SDS011;64233;51.486;6.332;2023-05-19T00:49:48;9.70;;;2.65;;
75639;SDS011;64233;51.486;6.332;2023-05-19T00:52:13;5.25;;;2.95;;
75639;SDS011;64233;51.486;6.332;2023-05-19T00:54:38;7.22;;;2.72;;
75639;SDS011;64233;51.486;6.332;2023-05-19T00:57:04;5.80;;;2.85;;
75639;SDS011;64233;51.486;6.332;2023-05-19T00:59:29;7.07;;;2.63;;
75639;SDS011;64233;51.486;6.332;2023-05-19T01:01:55;4.03;;;2.67;;
75639;SDS011;64233;51.486;6.332;2023-05-19T01:04:20;4.57;;;2.95;;
75639;SDS011;64233;51.486;6.332;2023-05-19T01:06:46;7.10;;;3.03;;
75639;SDS011;64233;51.486;6.332;2023-05-19T01:09:22;7.60;;;2.95;;
75639;SDS011;64233;51.486;6.332;2023-05-19T01:11:48;6.53;;;3.08;;
75639;SDS011;64233;51.486;6.332;2023-05-19T01:14:14;4.60;;;2.35;;
75639;SDS011;64233;51.486;6.332;2023-05-19T01:16:41;5.40;;;2.95;;
75639;SDS011;64233;51.486;6.332;2023-05-19T01:22:17;8.02;;;2.88;;
75639;SDS011;64233;51.486;6.332;2023-05-19T01:30:40;3.90;;;2.88;;
75639;SDS011;64233;51.486;6.332;2023-05-19T01:33:09;3.47;;;2.60;;
75639;SDS011;64233;51.486;6.332;2023-05-19T01:35:38;5.95;;;3.95;;
75639;SDS011;64233;51.486;6.332;2023-05-19T01:38:07;3.70;;;3.10;;
75639;SDS011;64233;51.486;6.332;2023-05-19T01:40:33;7.07;;;3.08;;
75639;SDS011;64233;51.486;6.332;2023-05-19T01:43:01;6.00;;;3.10;;
75639;SDS011;64233;51.486;6.332;2023-05-19T01:45:26;4.07;;;3.20;;
75639;SDS011;64233;51.486;6.332;2023-05-19T01:47:54;7.65;;;3.08;;
75639;SDS011;64233;51.486;6.332;2023-05-19T01:50:21;7.10;;;4.05;;
75639;SDS011;64233;51.486;6.332;2023-05-19T01:52:47;5.45;;;3.38;;
75639;SDS011;64233;51.486;6.332;2023-05-19T01:55:12;6.07;;;3.58;;
75639;SDS011;64233;51.486;6.332;2023-05-19T02:08:29;5.97;;;3.47;;
75639;SDS011;64233;51.486;6.332;2023-05-19T02:11:13;6.40;;;3.35;;
75639;SDS011;64233;51.486;6.332;2023-05-19T02:13:43;5.53;;;3.45;;
75639;SDS011;64233;51.486;6.332;2023-05-19T02:16:10;11.13;;;4.78;;
75639;SDS011;64233;51.486;6.332;2023-05-19T02:18:37;5.88;;;3.55;;
75639;SDS011;64233;51.486;6.332;2023-05-19T02:21:03;8.02;;;3.35;;
75639;SDS011;64233;51.486;6.332;2023-05-19T02:23:29;9.60;;;3.35;;
75639;SDS011;64233;51.486;6.332;2023-05-19T02:25:55;4.97;;;3.03;;
75639;SDS011;64233;51.486;6.332;2023-05-19T02:28:20;5.80;;;3.15;;
75639;SDS011;64233;51.486;6.332;2023-05-19T02:30:45;6.47;;;4.03;;
75639;SDS011;64233;51.486;6.332;2023-05-19T02:33:11;6.90;;;4.13;;
75639;SDS011;64233;51.486;6.332;2023-05-19T02:35:36;9.77;;;3.75;;
75639;SDS011;64233;51.486;6.332;2023-05-19T02:38:01;9.85;;;3.78;;
75639;SDS011;64233;51.486;6.332;2023-05-19T02:40:27;8.10;;;4.25;;
75639;SDS011;64233;51.486;6.332;2023-05-19T02:42:52;5.90;;;3.63;;
75639;SDS011;64233;51.486;6.332;2023-05-19T02:45:17;8.98;;;4.80;;
75639;SDS011;64233;51.486;6.332;2023-05-19T02:47:43;6.77;;;3.83;;
75639;SDS011;64233;51.486;6.332;2023-05-19T02:50:08;6.68;;;3.58;;
75639;SDS011;64233;51.486;6.332;2023-05-19T02:52:33;5.88;;;4.05;;
75639;SDS011;64233;51.486;6.332;2023-05-19T02:54:59;10.65;;;3.72;;
75639;SDS011;64233;51.486;6.332;2023-05-19T02:57:24;7.90;;;4.60;;
75639;SDS011;64233;51.486;6.332;2023-05-19T02:59:50;7.38;;;4.25;;
75639;SDS011;64233;51.486;6.332;2023-05-19T03:02:16;9.38;;;3.85;;
75639;SDS011;64233;51.486;6.332;2023-05-19T03:04:41;12.52;;;4.03;;
75639;SDS011;64233;51.486;6.332;2023-05-19T03:07:07;5.10;;;3.38;;
75639;SDS011;64233;51.486;6.332;2023-05-19T03:09:37;7.85;;;4.53;;
75639;SDS011;64233;51.486;6.332;2023-05-19T03:12:03;11.95;;;4.90;;
75639;SDS011;64233;51.486;6.332;2023-05-19T03:14:30;9.50;;;4.43;;
75639;SDS011;64233;51.486;6.332;2023-05-19T03:16:56;7.18;;;4.32;;
75639;SDS011;64233;51.486;6.332;2023-05-19T03:19:21;8.85;;;4.10;;
75639;SDS011;64233;51.486;6.332;2023-05-19T03:21:47;8.23;;;4.13;;
75639;SDS011;64233;51.486;6.332;2023-05-19T03:24:12;8.73;;;3.80;;
75639;SDS011;64233;51.486;6.332;2023-05-19T03:26:37;6.03;;;4.15;;
75639;SDS011;64233;51.486;6.332;2023-05-19T03:29:03;6.45;;;3.60;;
75639;SDS011;64233;51.486;6.332;2023-05-19T03:31:28;6.30;;;3.85;;
75639;SDS011;64233;51.486;6.332;2023-05-19T03:33:54;9.13;;;4.07;;
75639;SDS011;64233;51.486;6.332;2023-05-19T03:36:21;7.80;;;4.65;;
75639;SDS011;64233;51.486;6.332;2023-05-19T03:38:47;6.05;;;4.43;;
75639;SDS011;64233;51.486;6.332;2023-05-19T03:41:12;11.70;;;4.75;;
75639;SDS011;64233;51.486;6.332;2023-05-19T03:43:38;9.82;;;4.32;;
75639;SDS011;64233;51.486;6.332;2023-05-19T03:46:03;9.90;;;4.80;;
75639;SDS011;64233;51.486;6.332;2023-05-19T03:48:28;7.65;;;4.60;;
75639;SDS011;64233;51.486;6.332;2023-05-19T03:50:53;9.23;;;4.88;;
75639;SDS011;64233;51.486;6.332;2023-05-19T03:53:19;6.57;;;3.53;;
75639;SDS011;64233;51.486;6.332;2023-05-19T03:55:45;7.25;;;3.88;;
75639;SDS011;64233;51.486;6.332;2023-05-19T03:58:11;7.97;;;4.32;;
75639;SDS011;64233;51.486;6.332;2023-05-19T04:00:38;9.50;;;4.43;;
75639;SDS011;64233;51.486;6.332;2023-05-19T04:03:04;10.02;;;4.55;;
75639;SDS011;64233;51.486;6.332;2023-05-19T04:05:29;11.82;;;5.03;;
75639;SDS011;64233;51.486;6.332;2023-05-19T04:07:55;9.32;;;4.43;;
75639;SDS011;64233;51.486;6.332;2023-05-19T04:10:20;8.63;;;4.38;;
75639;SDS011;64233;51.486;6.332;2023-05-19T04:12:45;12.40;;;3.85;;
75639;SDS011;64233;51.486;6.332;2023-05-19T04:15:11;9.55;;;3.90;;
75639;SDS011;64233;51.486;6.332;2023-05-19T04:17:37;9.63;;;4.50;;
75639;SDS011;64233;51.486;6.332;2023-05-19T04:20:03;9.02;;;4.45;;
75639;SDS011;64233;51.486;6.332;2023-05-19T04:22:30;6.18;;;3.97;;
75639;SDS011;64233;51.486;6.332;2023-05-19T04:24:56;8.48;;;4.03;;
75639;SDS011;64233;51.486;6.332;2023-05-19T04:27:22;8.15;;;4.60;;
75639;SDS011;64233;51.486;6.332;2023-05-19T04:29:47;10.20;;;5.15;;
75639;SDS011;64233;51.486;6.332;2023-05-19T04:32:13;7.18;;;3.85;;
75639;SDS011;64233;51.486;6.332;2023-05-19T04:34:41;12.43;;;4.32;;
75639;SDS011;64233;51.486;6.332;2023-05-19T04:37:09;9.07;;;4.80;;
75639;SDS011;64233;51.486;6.332;2023-05-19T04:39:36;9.38;;;4.82;;
75639;SDS011;64233;51.486;6.332;2023-05-19T04:42:04;10.75;;;4.40;;
75639;SDS011;64233;51.486;6.332;2023-05-19T04:44:29;6.25;;;3.88;;
75639;SDS011;64233;51.486;6.332;2023-05-19T04:46:55;8.25;;;4.68;;
75639;SDS011;64233;51.486;6.332;2023-05-19T04:49:22;9.02;;;4.60;;
75639;SDS011;64233;51.486;6.332;2023-05-19T04:51:48;9.73;;;4.38;;
75639;SDS011;64233;51.486;6.332;2023-05-19T04:54:15;6.70;;;4.53;;
75639;SDS011;64233;51.486;6.332;2023-05-19T04:56:40;5.30;;;3.97;;
75639;SDS011;64233;51.486;6.332;2023-05-19T04:59:07;9.98;;;4.82;;
75639;SDS011;64233;51.486;6.332;2023-05-19T05:01:33;7.32;;;5.22;;
75639;SDS011;64233;51.486;6.332;2023-05-19T05:04:04;9.80;;;4.90;;
75639;SDS011;64233;51.486;6.332;2023-05-19T05:06:30;8.18;;;4.45;;
75639;SDS011;64233;51.486;6.332;2023-05-19T05:08:56;6.47;;;4.13;;
75639;SDS011;64233;51.486;6.332;2023-05-19T05:11:21;7.10;;;4.25;;
75639;SDS011;64233;51.486;6.332;2023-05-19T05:13:47;9.88;;;5.10;;
75639;SDS011;64233;51.486;6.332;2023-05-19T05:16:13;9.80;;;4.43;;
75639;SDS011;64233;51.486;6.332;2023-05-19T05:18:39;4.25;;;2.72;;
75639;SDS011;64233;51.486;6.332;2023-05-19T05:21:05;8.18;;;4.20;;
75639;SDS011;64233;51.486;6.332;2023-05-19T05:23:31;7.53;;;4.07;;
75639;SDS011;64233;51.486;6.332;2023-05-19T05:25:56;7.22;;;4.22;;
75639;SDS011;64233;51.486;6.332;2023-05-19T05:28:22;8.05;;;4.47;;
75639;SDS011;64233;51.486;6.332;2023-05-19T05:30:47;11.52;;;4.75;;
75639;SDS011;64233;51.486;6.332;2023-05-19T05:33:14;8.55;;;5.05;;
75639;SDS011;64233;51.486;6.332;2023-05-19T05:35:39;5.88;;;3.85;;
75639;SDS011;64233;51.486;6.332;2023-05-19T05:38:05;6.90;;;2.97;;
75639;SDS011;64233;51.486;6.332;2023-05-19T05:40:30;8.38;;;4.50;;
75639;SDS011;64233;51.486;6.332;2023-05-19T05:42:56;9.50;;;5.22;;
75639;SDS011;64233;51.486;6.332;2023-05-19T05:45:22;4.78;;;3.63;;
75639;SDS011;64233;51.486;6.332;2023-05-19T05:47:48;8.20;;;5.35;;
75639;SDS011;64233;51.486;6.332;2023-05-19T05:50:15;10.82;;;4.57;;
75639;SDS011;64233;51.486;6.332;2023-05-19T05:52:40;5.38;;;2.83;;
75639;SDS011;64233;51.486;6.332;2023-05-19T05:55:10;11.85;;;4.40;;
75639;SDS011;64233;51.486;6.332;2023-05-19T05:57:36;2.08;;;1.50;;
75639;SDS011;64233;51.486;6.332;2023-05-19T06:00:01;4.13;;;3.05;;
75639;SDS011;64233;51.486;6.332;2023-05-19T06:02:29;6.72;;;2.75;;
75639;SDS011;64233;51.486;6.332;2023-05-19T06:04:55;5.30;;;3.10;;
75639;SDS011;64233;51.486;6.332;2023-05-19T06:07:20;4.63;;;3.10;;
75639;SDS011;64233;51.486;6.332;2023-05-19T06:09:45;3.05;;;2.65;;
75639;SDS011;64233;51.486;6.332;2023-05-19T06:12:11;4.90;;;2.67;;
75639;SDS011;64233;51.486;6.332;2023-05-19T06:14:36;6.45;;;3.80;;
75639;SDS011;64233;51.486;6.332;2023-05-19T06:17:01;11.63;;;4.38;;
75639;SDS011;64233;51.486;6.332;2023-05-19T06:19:27;8.55;;;3.78;;
75639;SDS011;64233;51.486;6.332;2023-05-19T06:21:52;4.55;;;2.95;;
75639;SDS011;64233;51.486;6.332;2023-05-19T06:24:17;9.13;;;3.33;;
75639;SDS011;64233;51.486;6.332;2023-05-19T06:26:43;6.25;;;1.90;;
75639;SDS011;64233;51.486;6.332;2023-05-19T06:29:08;2.25;;;1.70;;
75639;SDS011;64233;51.486;6.332;2023-05-19T06:31:33;6.15;;;2.88;;
75639;SDS011;64233;51.486;6.332;2023-05-19T06:33:59;5.32;;;2.65;;
75639;SDS011;64233;51.486;6.332;2023-05-19T06:36:24;5.43;;;3.67;;
75639;SDS011;64233;51.486;6.332;2023-05-19T06:38:49;7.03;;;3.65;;
75639;SDS011;64233;51.486;6.332;2023-05-19T06:41:15;2.28;;;1.80;;
75639;SDS011;64233;51.486;6.332;2023-05-19T06:43:41;6.88;;;3.05;;
75639;SDS011;64233;51.486;6.332;2023-05-19T06:46:06;5.10;;;2.40;;
75639;SDS011;64233;51.486;6.332;2023-05-19T06:48:32;8.50;;;3.53;;
75639;SDS011;64233;51.486;6.332;2023-05-19T06:50:57;2.17;;;1.75;;
75639;SDS011;64233;51.486;6.332;2023-05-19T06:53:22;3.45;;;2.25;;
75639;SDS011;64233;51.486;6.332;2023-05-19T06:55:48;6.82;;;3.25;;
75639;SDS011;64233;51.486;6.332;2023-05-19T06:58:14;5.95;;;3.53;;
75639;SDS011;64233;51.486;6.332;2023-05-19T07:00:40;7.45;;;3.58;;
75639;SDS011;64233;51.486;6.332;2023-05-19T07:03:05;12.05;;;3.83;;
75639;SDS011;64233;51.486;6.332;2023-05-19T07:05:30;4.57;;;3.25;;
75639;SDS011;64233;51.486;6.332;2023-05-19T07:07:56;8.80;;;3.30;;
75639;SDS011;64233;51.486;6.332;2023-05-19T07:10:21;9.32;;;3.35;;
75639;SDS011;64233;51.486;6.332;2023-05-19T07:12:46;5.05;;;2.97;;
75639;SDS011;64233;51.486;6.332;2023-05-19T07:15:12;9.40;;;2.83;;
75639;SDS011;64233;51.486;6.332;2023-05-19T07:17:37;10.15;;;3.17;;
75639;SDS011;64233;51.486;6.332;2023-05-19T07:20:02;4.28;;;3.13;;
75639;SDS011;64233;51.486;6.332;2023-05-19T07:22:30;7.60;;;2.17;;
75639;SDS011;64233;51.486;6.332;2023-05-19T07:24:59;5.43;;;2.80;;
75639;SDS011;64233;51.486;6.332;2023-05-19T07:27:24;5.50;;;3.05;;
75639;SDS011;64233;51.486;6.332;2023-05-19T07:29:50;9.38;;;3.50;;
75639;SDS011;64233;51.486;6.332;2023-05-19T07:32:15;6.45;;;2.58;;
75639;SDS011;64233;51.486;6.332;2023-05-19T07:34:41;4.93;;;2.90;;
75639;SDS011;64233;51.486;6.332;2023-05-19T07:37:06;9.57;;;3.13;;
75639;SDS011;64233;51.486;6.332;2023-05-19T07:39:32;5.93;;;2.80;;
75639;SDS011;64233;51.486;6.332;2023-05-19T07:41:58;7.30;;;3.33;;
75639;SDS011;64233;51.486;6.332;2023-05-19T07:44:23;6.47;;;2.75;;
75639;SDS011;64233;51.486;6.332;2023-05-19T07:46:51;7.18;;;3.22;;
75639;SDS011;64233;51.486;6.332;2023-05-19T07:49:16;8.55;;;3.40;;
75639;SDS011;64233;51.486;6.332;2023-05-19T07:51:42;6.05;;;2.97;;
75639;SDS011;64233;51.486;6.332;2023-05-19T07:54:07;8.30;;;3.55;;
75639;SDS011;64233;51.486;6.332;2023-05-19T07:56:32;8.13;;;2.40;;
75639;SDS011;64233;51.486;6.332;2023-05-19T07:58:58;7.50;;;2.92;;
75639;SDS011;64233;51.486;6.332;2023-05-19T08:01:23;12.93;;;3.45;;
75639;SDS011;64233;51.486;6.332;2023-05-19T08:03:48;7.97;;;2.42;;
75639;SDS011;64233;51.486;6.332;2023-05-19T08:06:14;6.00;;;3.00;;
75639;SDS011;64233;51.486;6.332;2023-05-19T08:08:39;7.72;;;3.72;;
75639;SDS011;64233;51.486;6.332;2023-05-19T08:11:06;7.30;;;2.83;;
75639;SDS011;64233;51.486;6.332;2023-05-19T08:13:31;5.07;;;2.80;;
75639;SDS011;64233;51.486;6.332;2023-05-19T08:15:57;3.65;;;2.58;;
75639;SDS011;64233;51.486;6.332;2023-05-19T08:18:23;4.28;;;2.72;;
75639;SDS011;64233;51.486;6.332;2023-05-19T08:20:49;7.07;;;3.08;;
75639;SDS011;64233;51.486;6.332;2023-05-19T08:23:14;4.93;;;2.42;;
75639;SDS011;64233;51.486;6.332;2023-05-19T08:25:40;3.40;;;2.70;;
75639;SDS011;64233;51.486;6.332;2023-05-19T08:28:05;5.93;;;2.55;;
75639;SDS011;64233;51.486;6.332;2023-05-19T08:30:31;7.18;;;3.25;;
75639;SDS011;64233;51.486;6.332;2023-05-19T08:32:56;3.35;;;1.77;;
75639;SDS011;64233;51.486;6.332;2023-05-19T08:35:21;6.03;;;2.58;;
75639;SDS011;64233;51.486;6.332;2023-05-19T08:37:47;3.63;;;2.45;;
75639;SDS011;64233;51.486;6.332;2023-05-19T08:40:15;4.70;;;2.13;;
75639;SDS011;64233;51.486;6.332;2023-05-19T08:42:42;3.92;;;1.10;;
75639;SDS011;64233;51.486;6.332;2023-05-19T08:45:08;3.40;;;2.50;;
75639;SDS011;64233;51.486;6.332;2023-05-19T08:47:34;3.33;;;2.28;;
75639;SDS011;64233;51.486;6.332;2023-05-19T08:50:03;3.40;;;1.95;;
75639;SDS011;64233;51.486;6.332;2023-05-19T08:52:33;4.25;;;3.08;;
75639;SDS011;64233;51.486;6.332;2023-05-19T08:55:15;9.88;;;2.92;;
75639;SDS011;64233;51.486;6.332;2023-05-19T08:57:45;8.55;;;2.08;;
75639;SDS011;64233;51.486;6.332;2023-05-19T09:00:12;9.48;;;2.42;;
75639;SDS011;64233;51.486;6.332;2023-05-19T09:02:39;6.55;;;3.42;;
75639;SDS011;64233;51.486;6.332;2023-05-19T09:05:06;8.48;;;2.15;;
75639;SDS011;64233;51.486;6.332;2023-05-19T09:07:32;8.30;;;2.40;;
75639;SDS011;64233;51.486;6.332;2023-05-19T09:10:00;3.40;;;1.88;;
75639;SDS011;64233;51.486;6.332;2023-05-19T09:12:26;4.40;;;2.22;;
75639;SDS011;64233;51.486;6.332;2023-05-19T09:14:51;1.65;;;0.88;;
75639;SDS011;64233;51.486;6.332;2023-05-19T09:17:17;7.72;;;2.10;;
75639;SDS011;64233;51.486;6.332;2023-05-19T09:19:43;8.75;;;2.05;;
75639;SDS011;64233;51.486;6.332;2023-05-19T09:22:11;6.82;;;3.30;;
75639;SDS011;64233;51.486;6.332;2023-05-19T09:24:38;0.60;;;0.55;;
75639;SDS011;64233;51.486;6.332;2023-05-19T09:27:05;2.63;;;1.13;;
75639;SDS011;64233;51.486;6.332;2023-05-19T09:29:30;2.85;;;2.03;;
75639;SDS011;64233;51.486;6.332;2023-05-19T09:31:56;5.13;;;1.75;;
75639;SDS011;64233;51.486;6.332;2023-05-19T09:34:25;4.55;;;1.92;;
75639;SDS011;64233;51.486;6.332;2023-05-19T09:36:52;2.88;;;2.08;;
75639;SDS011;64233;51.486;6.332;2023-05-19T09:39:18;5.60;;;2.58;;
75639;SDS011;64233;51.486;6.332;2023-05-19T09:41:45;7.25;;;2.20;;
75639;SDS011;64233;51.486;6.332;2023-05-19T09:44:33;4.80;;;2.28;;
75639;SDS011;64233;51.486;6.332;2023-05-19T09:46:59;2.97;;;1.73;;
75639;SDS011;64233;51.486;6.332;2023-05-19T09:49:25;3.63;;;1.15;;
75639;SDS011;64233;51.486;6.332;2023-05-19T09:51:58;3.05;;;1.70;;
75639;SDS011;64233;51.486;6.332;2023-05-19T09:54:26;6.75;;;2.22;;
75639;SDS011;64233;51.486;6.332;2023-05-19T09:57:10;2.33;;;1.48;;
75639;SDS011;64233;51.486;6.332;2023-05-19T09:59:36;4.85;;;2.13;;
75639;SDS011;64233;51.486;6.332;2023-05-19T10:02:03;2.78;;;1.45;;
75639;SDS011;64233;51.486;6.332;2023-05-19T10:04:29;4.25;;;2.00;;
75639;SDS011;64233;51.486;6.332;2023-05-19T10:06:56;5.47;;;1.88;;
75639;SDS011;64233;51.486;6.332;2023-05-19T10:09:26;2.58;;;1.50;;
75639;SDS011;64233;51.486;6.332;2023-05-19T10:11:53;6.70;;;1.73;;
75639;SDS011;64233;51.486;6.332;2023-05-19T10:14:22;2.42;;;1.40;;
75639;SDS011;64233;51.486;6.332;2023-05-19T10:16:52;3.17;;;1.63;;
75639;SDS011;64233;51.486;6.332;2023-05-19T10:19:22;7.75;;;1.83;;
75639;SDS011;64233;51.486;6.332;2023-05-19T10:21:49;3.65;;;2.03;;
75639;SDS011;64233;51.486;6.332;2023-05-19T10:24:15;5.40;;;2.28;;
75639;SDS011;64233;51.486;6.332;2023-05-19T10:26:43;4.40;;;1.85;;
75639;SDS011;64233;51.486;6.332;2023-05-19T10:29:27;7.95;;;2.15;;
75639;SDS011;64233;51.486;6.332;2023-05-19T10:31:56;2.58;;;1.77;;
75639;SDS011;64233;51.486;6.332;2023-05-19T10:34:34;3.78;;;2.17;;
75639;SDS011;64233;51.486;6.332;2023-05-19T10:39:46;1.27;;;0.52;;
75639;SDS011;64233;51.486;6.332;2023-05-19T10:42:15;5.18;;;2.13;;
75639;SDS011;64233;51.486;6.332;2023-05-19T10:47:22;6.15;;;1.90;;
75639;SDS011;64233;51.486;6.332;2023-05-19T10:49:48;2.60;;;1.90;;
75639;SDS011;64233;51.486;6.332;2023-05-19T10:52:19;7.97;;;1.80;;
75639;SDS011;64233;51.486;6.332;2023-05-19T10:54:46;3.20;;;1.98;;
75639;SDS011;64233;51.486;6.332;2023-05-19T10:57:15;4.40;;;1.27;;
75639;SDS011;64233;51.486;6.332;2023-05-19T10:59:41;5.40;;;1.85;;
75639;SDS011;64233;51.486;6.332;2023-05-19T11:02:08;3.70;;;1.90;;
75639;SDS011;64233;51.486;6.332;2023-05-19T11:04:46;7.15;;;1.83;;
75639;SDS011;64233;51.486;6.332;2023-05-19T11:07:16;8.50;;;1.90;;
75639;SDS011;64233;51.486;6.332;2023-05-19T11:09:43;3.30;;;1.98;;
75639;SDS011;64233;51.486;6.332;2023-05-19T11:12:13;4.47;;;2.88;;
75639;SDS011;64233;51.486;6.332;2023-05-19T11:14:44;3.22;;;1.88;;
75639;SDS011;64233;51.486;6.332;2023-05-19T11:17:13;9.02;;;2.22;;
75639;SDS011;64233;51.486;6.332;2023-05-19T11:19:39;4.10;;;1.83;;
75639;SDS011;64233;51.486;6.332;2023-05-19T11:22:16;3.47;;;1.67;;
75639;SDS011;64233;51.486;6.332;2023-05-19T11:24:42;6.07;;;2.17;;
75639;SDS011;64233;51.486;6.332;2023-05-19T11:27:16;9.50;;;1.80;;
75639;SDS011;64233;51.486;6.332;2023-05-19T11:29:46;7.78;;;2.03;;
75639;SDS011;64233;51.486;6.332;2023-05-19T11:32:15;4.32;;;1.92;;
75639;SDS011;64233;51.486;6.332;2023-05-19T11:34:42;1.63;;;1.40;;
75639;SDS011;64233;51.486;6.332;2023-05-19T11:37:08;5.90;;;1.40;;
75639;SDS011;64233;51.486;6.332;2023-05-19T11:39:35;6.28;;;1.80;;
75639;SDS011;64233;51.486;6.332;2023-05-19T11:42:00;2.40;;;1.70;;
75639;SDS011;64233;51.486;6.332;2023-05-19T11:44:26;1.23;;;1.13;;
75639;SDS011;64233;51.486;6.332;2023-05-19T11:46:51;2.65;;;1.83;;
75639;SDS011;64233;51.486;6.332;2023-05-19T11:49:17;7.53;;;2.20;;
75639;SDS011;64233;51.486;6.332;2023-05-19T11:51:43;3.35;;;1.98;;
75639;SDS011;64233;51.486;6.332;2023-05-19T11:54:09;3.30;;;1.83;;
75639;SDS011;64233;51.486;6.332;2023-05-19T11:56:38;5.28;;;2.28;;
75639;SDS011;64233;51.486;6.332;2023-05-19T11:59:05;2.92;;;1.85;;
75639;SDS011;64233;51.486;6.332;2023-05-19T12:01:30;4.50;;;1.92;;
75639;SDS011;64233;51.486;6.332;2023-05-19T12:03:55;3.72;;;1.80;;
75639;SDS011;64233;51.486;6.332;2023-05-19T12:06:21;3.83;;;2.45;;
75639;SDS011;64233;51.486;6.332;2023-05-19T12:08:47;5.95;;;2.05;;
75639;SDS011;64233;51.486;6.332;2023-05-19T12:11:15;5.55;;;2.03;;
75639;SDS011;64233;51.486;6.332;2023-05-19T12:13:40;7.40;;;2.47;;
75639;SDS011;64233;51.486;6.332;2023-05-19T12:16:07;7.55;;;2.10;;
75639;SDS011;64233;51.486;6.332;2023-05-19T12:18:35;7.75;;;2.13;;
75639;SDS011;64233;51.486;6.332;2023-05-19T12:21:01;2.78;;;2.08;;
75639;SDS011;64233;51.486;6.332;2023-05-19T12:23:27;6.40;;;2.53;;
75639;SDS011;64233;51.486;6.332;2023-05-19T12:25:55;3.03;;;2.30;;
75639;SDS011;64233;51.486;6.332;2023-05-19T12:28:21;2.85;;;1.95;;
75639;SDS011;64233;51.486;6.332;2023-05-19T12:30:48;4.35;;;2.17;;
75639;SDS011;64233;51.486;6.332;2023-05-19T12:33:20;3.35;;;1.55;;
75639;SDS011;64233;51.486;6.332;2023-05-19T12:35:47;5.97;;;2.20;;
75639;SDS011;64233;51.486;6.332;2023-05-19T12:38:13;4.90;;;1.88;;
75639;SDS011;64233;51.486;6.332;2023-05-19T12:40:40;9.73;;;2.03;;
75639;SDS011;64233;51.486;6.332;2023-05-19T12:43:06;6.55;;;1.65;;
75639;SDS011;64233;51.486;6.332;2023-05-19T12:45:36;3.10;;;1.55;;
75639;SDS011;64233;51.486;6.332;2023-05-19T12:48:03;5.50;;;2.05;;
75639;SDS011;64233;51.486;6.332;2023-05-19T12:50:40;4.65;;;1.95;;
75639;SDS011;64233;51.486;6.332;2023-05-19T12:53:07;3.80;;;2.10;;
75639;SDS011;64233;51.486;6.332;2023-05-19T12:55:43;3.00;;;1.50;;
75639;SDS011;64233;51.486;6.332;2023-05-19T12:58:09;5.57;;;1.77;;
75639;SDS011;64233;51.486;6.332;2023-05-19T13:00:39;5.53;;;2.25;;
75639;SDS011;64233;51.486;6.332;2023-05-19T13:03:05;2.80;;;1.63;;
75639;SDS011;64233;51.486;6.332;2023-05-19T13:05:42;5.93;;;1.83;;
75639;SDS011;64233;51.486;6.332;2023-05-19T13:08:14;2.22;;;1.80;;
75639;SDS011;64233;51.486;6.332;2023-05-19T13:10:50;3.22;;;1.42;;
75639;SDS011;64233;51.486;6.332;2023-05-19T13:13:15;3.33;;;1.88;;
75639;SDS011;64233;51.486;6.332;2023-05-19T13:15:41;7.03;;;1.85;;
75639;SDS011;64233;51.486;6.332;2023-05-19T13:18:08;7.35;;;1.90;;
75639;SDS011;64233;51.486;6.332;2023-05-19T13:20:36;3.55;;;2.75;;
75639;SDS011;64233;51.486;6.332;2023-05-19T13:23:02;4.10;;;1.90;;
75639;SDS011;64233;51.486;6.332;2023-05-19T13:25:28;4.90;;;1.50;;
75639;SDS011;64233;51.486;6.332;2023-05-19T13:27:54;2.45;;;1.52;;
75639;SDS011;64233;51.486;6.332;2023-05-19T13:30:20;5.25;;;1.90;;
75639;SDS011;64233;51.486;6.332;2023-05-19T13:32:46;5.55;;;1.67;;
75639;SDS011;64233;51.486;6.332;2023-05-19T13:35:12;1.75;;;1.33;;
75639;SDS011;64233;51.486;6.332;2023-05-19T13:37:38;7.63;;;2.20;;
75639;SDS011;64233;51.486;6.332;2023-05-19T13:40:05;4.45;;;1.02;;
75639;SDS011;64233;51.486;6.332;2023-05-19T13:42:31;4.82;;;1.77;;
75639;SDS011;64233;51.486;6.332;2023-05-19T13:44:57;4.45;;;1.35;;
75639;SDS011;64233;51.486;6.332;2023-05-19T13:47:22;4.40;;;1.75;;
75639;SDS011;64233;51.486;6.332;2023-05-19T13:49:48;5.15;;;1.65;;
75639;SDS011;64233;51.486;6.332;2023-05-19T13:52:13;5.60;;;1.73;;
75639;SDS011;64233;51.486;6.332;2023-05-19T13:54:39;1.67;;;1.20;;
75639;SDS011;64233;51.486;6.332;2023-05-19T13:57:04;3.83;;;1.60;;
75639;SDS011;64233;51.486;6.332;2023-05-19T13:59:30;2.75;;;1.08;;
75639;SDS011;64233;51.486;6.332;2023-05-19T14:01:55;16.02;;;2.20;;
75639;SDS011;64233;51.486;6.332;2023-05-19T14:04:21;4.45;;;1.80;;
75639;SDS011;64233;51.486;6.332;2023-05-19T14:06:47;5.28;;;1.65;;
75639;SDS011;64233;51.486;6.332;2023-05-19T14:09:12;5.13;;;1.52;;
75639;SDS011;64233;51.486;6.332;2023-05-19T14:11:38;4.70;;;1.60;;
75639;SDS011;64233;51.486;6.332;2023-05-19T14:14:03;5.75;;;1.75;;
75639;SDS011;64233;51.486;6.332;2023-05-19T14:16:28;3.63;;;1.73;;
75639;SDS011;64233;51.486;6.332;2023-05-19T14:18:54;3.42;;;1.73;;
75639;SDS011;64233;51.486;6.332;2023-05-19T14:21:20;4.88;;;2.45;;
75639;SDS011;64233;51.486;6.332;2023-05-19T14:23:45;3.58;;;1.70;;
75639;SDS011;64233;51.486;6.332;2023-05-19T14:26:10;6.77;;;1.90;;
75639;SDS011;64233;51.486;6.332;2023-05-19T14:28:36;4.03;;;1.42;;
75639;SDS011;64233;51.486;6.332;2023-05-19T14:31:01;4.90;;;1.75;;
75639;SDS011;64233;51.486;6.332;2023-05-19T14:33:27;3.53;;;1.60;;
75639;SDS011;64233;51.486;6.332;2023-05-19T14:35:52;4.70;;;1.95;;
75639;SDS011;64233;51.486;6.332;2023-05-19T14:38:17;8.45;;;1.70;;
75639;SDS011;64233;51.486;6.332;2023-05-19T14:40:43;3.40;;;1.40;;
75639;SDS011;64233;51.486;6.332;2023-05-19T14:43:09;4.50;;;1.85;;
75639;SDS011;64233;51.486;6.332;2023-05-19T14:45:34;7.03;;;1.73;;
75639;SDS011;64233;51.486;6.332;2023-05-19T14:48:00;2.78;;;1.48;;
75639;SDS011;64233;51.486;6.332;2023-05-19T14:50:26;2.05;;;1.10;;
75639;SDS011;64233;51.486;6.332;2023-05-19T14:52:52;6.55;;;1.48;;
75639;SDS011;64233;51.486;6.332;2023-05-19T14:55:17;1.87;;;1.50;;
75639;SDS011;64233;51.486;6.332;2023-05-19T14:57:42;4.17;;;1.67;;
75639;SDS011;64233;51.486;6.332;2023-05-19T15:00:07;4.10;;;1.60;;
75639;SDS011;64233;51.486;6.332;2023-05-19T15:02:34;6.65;;;1.73;;
75639;SDS011;64233;51.486;6.332;2023-05-19T15:04:59;4.25;;;1.83;;
75639;SDS011;64233;51.486;6.332;2023-05-19T15:07:25;8.50;;;2.22;;
75639;SDS011;64233;51.486;6.332;2023-05-19T15:09:51;8.68;;;1.73;;